createdAt,value
2022-10-22T00:02:23.503Z,10.70
2022-10-22T00:04:51.110Z,10.70
2022-10-22T00:07:19.000Z,10.60
2022-10-22T00:09:46.841Z,10.60
2022-10-22T00:12:15.521Z,10.60
2022-10-22T00:14:42.718Z,10.60
2022-10-22T00:17:11.451Z,10.50
2022-10-22T00:19:39.315Z,10.60
2022-10-22T00:22:07.280Z,10.60
2022-10-22T00:24:35.139Z,10.50
2022-10-22T00:27:02.371Z,10.50
2022-10-22T00:29:29.393Z,10.50
2022-10-22T00:31:56.718Z,10.50
2022-10-22T00:34:24.216Z,10.60
2022-10-22T00:36:52.025Z,10.50
2022-10-22T00:39:21.285Z,10.50
2022-10-22T00:41:49.680Z,10.60
2022-10-22T00:44:58.372Z,10.50
2022-10-22T00:47:28.151Z,10.50
2022-10-22T00:49:56.218Z,10.50
2022-10-22T00:52:23.245Z,10.50
2022-10-22T00:54:51.349Z,10.50
2022-10-22T00:57:19.802Z,10.50
2022-10-22T00:59:47.296Z,10.50
2022-10-22T01:02:14.883Z,10.50
2022-10-22T01:04:42.132Z,10.50
2022-10-22T01:07:17.763Z,10.50
2022-10-22T01:10:10.962Z,10.50
2022-10-22T01:12:58.975Z,10.50
2022-10-22T01:15:51.520Z,10.50
2022-10-22T01:18:27.166Z,10.50
2022-10-22T01:21:22.782Z,10.50
2022-10-22T01:24:09.715Z,10.50
2022-10-22T01:27:13.968Z,10.50
2022-10-22T01:29:42.696Z,10.50
2022-10-22T01:32:14.166Z,10.50
2022-10-22T01:34:44.390Z,10.50
2022-10-22T01:37:14.689Z,10.50
2022-10-22T01:39:45.052Z,10.50
2022-10-22T01:42:15.281Z,10.50
2022-10-22T01:44:42.671Z,10.40
2022-10-22T01:47:24.462Z,10.40
2022-10-22T01:49:54.225Z,10.40
2022-10-22T01:52:29.643Z,10.40
2022-10-22T01:55:23.051Z,10.40
2022-10-22T01:58:16.404Z,10.40
2022-10-22T02:00:50.572Z,10.50
2022-10-22T02:03:25.779Z,10.50
2022-10-22T02:05:57.075Z,10.50
2022-10-22T02:08:30.995Z,10.50
2022-10-22T02:10:59.499Z,10.50
2022-10-22T02:13:31.434Z,10.40
2022-10-22T02:15:59.755Z,10.40
2022-10-22T02:18:29.763Z,10.40
2022-10-22T02:20:58.450Z,10.40
2022-10-22T02:23:25.511Z,10.50
2022-10-22T02:26:01.253Z,10.50
2022-10-22T02:28:46.416Z,10.50
2022-10-22T02:31:19.240Z,10.50
2022-10-22T02:33:50.332Z,10.50
2022-10-22T02:36:18.797Z,10.50
2022-10-22T02:38:47.330Z,10.50
2022-10-22T02:41:15.948Z,10.60
2022-10-22T02:43:45.082Z,10.50
2022-10-22T02:46:12.296Z,10.60
2022-10-22T02:48:39.102Z,10.60
2022-10-22T02:51:06.057Z,10.60
2022-10-22T02:53:33.213Z,10.60
2022-10-22T02:56:00.283Z,10.60
2022-10-22T02:58:27.111Z,10.60
2022-10-22T03:00:54.075Z,10.60
2022-10-22T03:03:20.986Z,10.60
2022-10-22T03:05:48.018Z,10.50
2022-10-22T03:08:14.815Z,10.50
2022-10-22T03:10:41.674Z,10.50
2022-10-22T03:13:08.527Z,10.50
2022-10-22T03:15:35.328Z,10.40
2022-10-22T03:18:02.213Z,10.40
2022-10-22T03:20:29.105Z,10.40
2022-10-22T03:22:56.683Z,10.40
2022-10-22T03:25:26.970Z,10.40
2022-10-22T03:28:01.322Z,10.40
2022-10-22T03:30:28.144Z,10.40
2022-10-22T03:32:54.962Z,10.40
2022-10-22T03:35:21.944Z,10.40
2022-10-22T03:37:48.901Z,10.40
2022-10-22T03:40:15.930Z,10.50
2022-10-22T03:42:43.269Z,10.40
2022-10-22T03:45:10.639Z,10.50
2022-10-22T03:47:37.883Z,10.50
2022-10-22T03:50:06.185Z,10.50
2022-10-22T03:52:39.991Z,10.50
2022-10-22T03:55:08.105Z,10.50
2022-10-22T03:57:34.957Z,10.40
2022-10-22T04:00:01.967Z,10.40
2022-10-22T04:02:28.805Z,10.40
2022-10-22T04:04:55.610Z,10.40
2022-10-22T04:07:22.489Z,10.40
2022-10-22T04:09:49.290Z,10.40
2022-10-22T04:12:16.088Z,10.40
2022-10-22T04:14:43.035Z,10.40
2022-10-22T04:17:09.861Z,10.40
2022-10-22T04:19:36.900Z,10.40
2022-10-22T04:22:04.023Z,10.40
2022-10-22T04:24:32.115Z,10.40
2022-10-22T04:26:59.297Z,10.40
2022-10-22T04:29:26.396Z,10.40
2022-10-22T04:31:53.368Z,10.40
2022-10-22T04:34:20.262Z,10.40
2022-10-22T04:36:47.129Z,10.40
2022-10-22T04:39:14.950Z,10.40
2022-10-22T04:41:41.788Z,10.40
2022-10-22T04:44:12.333Z,10.40
2022-10-22T04:46:43.747Z,10.40
2022-10-22T04:49:10.588Z,10.40
2022-10-22T04:51:37.627Z,10.40
2022-10-22T04:54:04.704Z,10.40
2022-10-22T04:56:32.821Z,10.50
2022-10-22T04:59:05.329Z,10.50
2022-10-22T05:01:41.747Z,10.50
2022-10-22T05:04:12.595Z,10.50
2022-10-22T05:06:39.551Z,10.50
2022-10-22T05:09:12.807Z,10.50
2022-10-22T05:11:46.191Z,10.60
2022-10-22T05:14:13.362Z,10.60
2022-10-22T05:16:40.369Z,10.70
2022-10-22T05:19:07.755Z,10.70
2022-10-22T05:21:35.407Z,10.70
2022-10-22T05:24:02.249Z,10.70
2022-10-22T05:26:29.606Z,10.70
2022-10-22T05:28:56.865Z,10.80
2022-10-22T05:31:24.010Z,10.80
2022-10-22T05:33:50.962Z,10.80
2022-10-22T05:36:22.502Z,10.80
2022-10-22T05:38:50.008Z,10.90
2022-10-22T05:41:19.159Z,10.90
2022-10-22T05:43:46.779Z,11.00
2022-10-22T05:46:21.258Z,11.00
2022-10-22T05:48:54.041Z,11.10
2022-10-22T05:51:21.407Z,11.10
2022-10-22T05:53:53.220Z,11.10
2022-10-22T05:56:20.366Z,11.10
2022-10-22T05:58:47.760Z,11.10
2022-10-22T06:01:22.057Z,11.10
2022-10-22T06:03:49.668Z,11.20
2022-10-22T06:06:25.548Z,11.20
2022-10-22T06:08:53.553Z,11.20
2022-10-22T06:11:22.473Z,11.20
2022-10-22T06:13:50.641Z,11.30
2022-10-22T06:16:17.673Z,11.20
2022-10-22T06:18:44.715Z,11.30
2022-10-22T06:21:14.690Z,11.30
2022-10-22T06:23:42.585Z,11.30
2022-10-22T06:26:10.974Z,11.30
2022-10-22T06:28:38.792Z,11.30
2022-10-22T06:31:06.430Z,11.30
2022-10-22T06:33:37.138Z,11.40
2022-10-22T06:36:12.420Z,11.40
2022-10-22T06:38:39.588Z,11.40
2022-10-22T06:41:09.392Z,11.40
2022-10-22T06:43:36.421Z,11.50
2022-10-22T06:46:05.975Z,11.60
2022-10-22T06:48:33.554Z,11.70
2022-10-22T06:51:04.915Z,11.70
2022-10-22T06:53:31.886Z,11.80
2022-10-22T06:55:58.915Z,11.80
2022-10-22T06:58:25.704Z,11.80
2022-10-22T07:01:13.477Z,11.80
2022-10-22T07:03:41.856Z,11.90
2022-10-22T07:06:11.083Z,12.00
2022-10-22T07:08:39.248Z,12.00
2022-10-22T07:11:08.823Z,12.00
2022-10-22T07:13:36.155Z,12.10
2022-10-22T07:16:03.994Z,12.20
2022-10-22T07:18:31.463Z,12.20
2022-10-22T07:20:58.299Z,12.20
2022-10-22T07:23:25.410Z,12.30
2022-10-22T07:25:52.787Z,12.20
2022-10-22T07:28:20.120Z,12.20
2022-10-22T07:30:47.577Z,12.20
2022-10-22T07:33:14.686Z,12.10
2022-10-22T07:35:42.401Z,12.10
2022-10-22T07:38:09.687Z,12.20
2022-10-22T07:40:37.044Z,12.30
2022-10-22T07:43:04.906Z,12.50
2022-10-22T07:45:31.925Z,12.50
2022-10-22T07:48:00.515Z,12.50
2022-10-22T07:50:27.305Z,12.60
2022-10-22T07:52:56.118Z,12.70
2022-10-22T07:55:25.271Z,12.90
2022-10-22T07:57:52.203Z,13.00
2022-10-22T08:00:21.829Z,13.70
2022-10-22T08:02:51.387Z,14.30
2022-10-22T08:05:18.594Z,14.70
2022-10-22T08:07:45.402Z,15.40
2022-10-22T08:10:12.746Z,16.00
2022-10-22T08:12:40.687Z,16.10
2022-10-22T08:15:08.441Z,16.70
2022-10-22T08:17:35.383Z,16.80
2022-10-22T08:20:02.255Z,16.80
2022-10-22T08:22:29.129Z,17.10
2022-10-22T08:25:08.903Z,17.20
2022-10-22T08:27:36.236Z,16.70
2022-10-22T08:30:04.975Z,16.80
2022-10-22T08:32:32.310Z,17.00
2022-10-22T08:34:59.212Z,17.00
2022-10-22T08:37:26.057Z,16.90
2022-10-22T08:39:52.920Z,17.20
2022-10-22T08:42:43.793Z,17.10
2022-10-22T08:45:19.235Z,17.00
2022-10-22T08:48:07.074Z,17.50
2022-10-22T08:50:48.520Z,17.60
2022-10-22T08:53:22.136Z,17.90
2022-10-22T08:55:53.489Z,17.80
2022-10-22T08:58:31.971Z,17.70
2022-10-22T09:01:13.517Z,17.70
2022-10-22T09:04:22.117Z,17.80
2022-10-22T09:06:50.845Z,17.60
2022-10-22T09:09:21.276Z,17.80
2022-10-22T09:11:51.930Z,18.20
2022-10-22T09:14:24.647Z,18.50
2022-10-22T09:17:10.073Z,18.80
2022-10-22T09:19:45.568Z,18.70
2022-10-22T09:25:27.561Z,19.00
2022-10-22T09:27:58.538Z,18.90
2022-10-22T09:30:37.873Z,18.90
2022-10-22T09:33:07.723Z,18.80
2022-10-22T09:35:47.057Z,19.10
2022-10-22T09:38:15.953Z,19.10
2022-10-22T09:40:48.310Z,19.00
2022-10-22T09:43:15.629Z,19.10
2022-10-22T09:45:43.331Z,18.30
2022-10-22T09:48:15.015Z,18.30
2022-10-22T09:50:54.943Z,18.90
2022-10-22T09:53:28.702Z,19.00
2022-10-22T09:56:01.246Z,19.40
2022-10-22T09:58:28.385Z,19.50
2022-10-22T10:01:01.054Z,19.60
2022-10-22T10:03:31.684Z,19.50
2022-10-22T10:06:03.066Z,19.60
2022-10-22T10:08:33.233Z,19.70
2022-10-22T10:11:04.954Z,20.00
2022-10-22T10:13:52.173Z,19.90
2022-10-22T10:16:22.053Z,19.80
2022-10-22T10:19:00.224Z,19.90
2022-10-22T10:21:33.212Z,19.50
2022-10-22T10:24:26.967Z,19.80
2022-10-22T10:27:16.857Z,20.90
2022-10-22T10:29:58.328Z,21.40
2022-10-22T10:32:37.180Z,20.60
2022-10-22T10:35:09.750Z,19.60
2022-10-22T10:37:47.111Z,19.40
2022-10-22T10:40:32.658Z,18.90
2022-10-22T10:43:10.034Z,18.50
2022-10-22T10:45:43.859Z,18.30
2022-10-22T10:48:23.653Z,18.80
2022-10-22T10:50:56.796Z,19.30
2022-10-22T10:53:32.655Z,19.80
2022-10-22T10:56:10.173Z,20.40
2022-10-22T10:58:57.024Z,20.60
2022-10-22T11:02:15.104Z,20.80
2022-10-22T11:04:50.898Z,21.30
2022-10-22T11:07:34.104Z,21.50
2022-10-22T11:10:29.896Z,21.60
2022-10-22T11:13:11.495Z,22.20
2022-10-22T11:15:40.238Z,22.60
2022-10-22T11:18:22.420Z,22.50
2022-10-22T11:21:03.659Z,22.60
2022-10-22T11:23:57.596Z,22.00
2022-10-22T11:26:36.486Z,21.40
2022-10-22T11:29:07.235Z,21.20
2022-10-22T11:31:34.409Z,20.60
2022-10-22T11:34:34.607Z,20.00
2022-10-22T11:37:04.142Z,19.60
2022-10-22T11:39:36.859Z,19.00
2022-10-22T11:42:11.783Z,18.70
2022-10-22T11:45:21.572Z,18.30
2022-10-22T11:48:10.494Z,18.50
2022-10-22T11:51:00.295Z,19.50
2022-10-22T11:53:39.047Z,20.20
2022-10-22T11:56:13.068Z,20.60
2022-10-22T11:58:44.731Z,20.30
2022-10-22T12:01:11.579Z,19.70
2022-10-22T12:03:51.598Z,19.20
2022-10-22T12:06:27.024Z,18.80
2022-10-22T12:08:56.498Z,18.80
2022-10-22T12:11:47.847Z,19.10
2022-10-22T12:14:20.563Z,19.80
2022-10-22T12:16:56.094Z,20.30
2022-10-22T12:19:23.849Z,20.40
2022-10-22T12:22:00.028Z,20.70
2022-10-22T12:24:33.331Z,21.40
2022-10-22T12:27:00.183Z,21.90
2022-10-22T12:29:28.538Z,22.20
2022-10-22T12:31:55.967Z,22.60
2022-10-22T12:34:25.001Z,22.80
2022-10-22T12:36:53.687Z,22.10
2022-10-22T12:39:25.352Z,21.60
2022-10-22T12:41:54.307Z,20.80
2022-10-22T12:44:21.145Z,20.10
2022-10-22T12:46:52.963Z,19.40
2022-10-22T12:49:34.334Z,19.30
2022-10-22T12:52:05.872Z,19.30
2022-10-22T12:54:35.319Z,19.30
2022-10-22T12:57:02.456Z,19.10
2022-10-22T12:59:40.299Z,18.70
2022-10-22T13:02:21.704Z,18.40
2022-10-22T13:05:07.362Z,18.20
2022-10-22T13:07:44.356Z,18.00
2022-10-22T13:10:30.869Z,17.80
2022-10-22T13:12:58.867Z,17.70
2022-10-22T13:15:39.090Z,17.60
2022-10-22T13:18:18.466Z,17.50
2022-10-22T13:20:57.759Z,17.50
2022-10-22T13:23:26.673Z,18.00
2022-10-22T13:26:19.874Z,18.90
2022-10-22T13:28:55.475Z,20.20
2022-10-22T13:31:28.294Z,20.30
2022-10-22T13:33:57.655Z,21.30
2022-10-22T13:36:25.028Z,21.80
2022-10-22T13:38:51.918Z,22.40
2022-10-22T13:41:33.744Z,23.00
2022-10-22T13:44:00.581Z,23.00
2022-10-22T13:46:27.700Z,22.20
2022-10-22T13:48:56.471Z,22.20
2022-10-22T13:51:28.034Z,22.40
2022-10-22T13:53:54.884Z,22.30
2022-10-22T13:56:22.533Z,22.50
2022-10-22T13:58:49.884Z,22.70
2022-10-22T14:01:27.564Z,22.70
2022-10-22T14:03:59.506Z,22.80
2022-10-22T14:06:29.960Z,23.20
2022-10-22T14:08:58.924Z,23.20
2022-10-22T14:11:31.256Z,23.30
2022-10-22T14:13:58.778Z,23.20
2022-10-22T14:16:28.542Z,23.70
2022-10-22T14:18:56.256Z,23.80
2022-10-22T14:21:23.535Z,23.90
2022-10-22T14:23:51.718Z,24.10
2022-10-22T14:26:32.900Z,23.90
2022-10-22T14:29:16.228Z,23.20
2022-10-22T14:31:44.877Z,22.30
2022-10-22T14:34:13.562Z,22.00
2022-10-22T14:36:43.518Z,22.30
2022-10-22T14:39:10.399Z,22.10
2022-10-22T14:41:37.666Z,21.70
2022-10-22T14:44:04.655Z,21.50
2022-10-22T14:46:31.569Z,21.30
2022-10-22T14:48:58.425Z,21.40
2022-10-22T14:51:25.240Z,21.30
2022-10-22T14:53:52.000Z,21.60
2022-10-22T14:56:22.413Z,21.60
2022-10-22T14:58:50.030Z,21.70
2022-10-22T15:01:16.964Z,21.80
2022-10-22T15:03:43.931Z,21.70
2022-10-22T15:06:11.371Z,21.60
2022-10-22T15:08:39.408Z,20.90
2022-10-22T15:11:08.619Z,20.50
2022-10-22T15:13:35.679Z,20.30
2022-10-22T15:16:06.363Z,20.20
2022-10-22T15:18:33.172Z,19.90
2022-10-22T15:21:02.878Z,19.80
2022-10-22T15:23:30.563Z,19.60
2022-10-22T15:25:57.622Z,19.50
2022-10-22T15:28:25.143Z,19.60
2022-10-22T15:30:56.227Z,19.40
2022-10-22T15:33:23.385Z,19.20
2022-10-22T15:35:50.237Z,19.00
2022-10-22T15:38:17.522Z,18.80
2022-10-22T15:40:44.748Z,18.70
2022-10-22T15:43:12.071Z,18.50
2022-10-22T15:45:39.524Z,18.20
2022-10-22T15:48:06.432Z,18.00
2022-10-22T15:50:38.455Z,17.70
2022-10-22T15:53:05.526Z,17.50
2022-10-22T15:55:32.309Z,17.20
2022-10-22T15:58:01.883Z,17.00
2022-10-22T16:00:31.206Z,16.70
2022-10-22T16:02:57.965Z,16.40
2022-10-22T16:05:26.741Z,16.10
2022-10-22T16:07:55.760Z,15.90
2022-10-22T16:10:22.827Z,15.70
2022-10-22T16:12:51.615Z,15.50
2022-10-22T16:15:18.402Z,15.20
2022-10-22T16:17:45.185Z,15.00
2022-10-22T16:22:39.912Z,14.80
2022-10-22T16:25:07.503Z,14.70
2022-10-22T16:27:34.312Z,14.50
2022-10-22T16:30:01.102Z,14.30
2022-10-22T16:32:27.986Z,14.10
2022-10-22T16:34:54.739Z,13.90
2022-10-22T16:37:21.552Z,13.80
2022-10-22T16:39:49.519Z,13.70
2022-10-22T16:42:16.338Z,13.60
2022-10-22T16:44:43.150Z,13.40
2022-10-22T16:47:09.937Z,13.40
2022-10-22T16:49:36.710Z,13.40
2022-10-22T16:52:03.645Z,13.40
2022-10-22T16:54:30.651Z,13.40
2022-10-22T16:56:57.655Z,13.30
2022-10-22T16:59:24.484Z,13.20
2022-10-22T17:01:51.487Z,13.10
2022-10-22T17:04:18.702Z,13.20
2022-10-22T17:06:45.481Z,13.30
2022-10-22T17:09:12.495Z,13.40
2022-10-22T17:11:41.337Z,13.40
2022-10-22T17:14:09.820Z,13.30
2022-10-22T17:16:36.619Z,13.30
2022-10-22T17:19:04.378Z,13.20
2022-10-22T17:21:31.208Z,13.20
2022-10-22T17:23:58.590Z,13.00
2022-10-22T17:26:26.975Z,12.80
2022-10-22T17:28:54.701Z,12.60
2022-10-22T17:31:28.744Z,12.30
2022-10-22T17:33:57.033Z,12.20
2022-10-22T17:36:25.095Z,12.00
2022-10-22T17:38:54.256Z,11.80
2022-10-22T17:41:24.762Z,11.70
2022-10-22T17:43:51.791Z,11.60
2022-10-22T17:46:21.464Z,11.50
2022-10-22T17:48:52.955Z,11.50
2022-10-22T17:51:21.168Z,11.40
2022-10-22T17:53:50.125Z,11.40
2022-10-22T17:56:20.539Z,11.40
2022-10-22T17:58:47.392Z,11.40
2022-10-22T18:01:35.301Z,11.30
2022-10-22T18:04:05.291Z,11.30
2022-10-22T18:06:33.012Z,11.40
2022-10-22T18:09:00.126Z,11.50
2022-10-22T18:11:27.756Z,11.50
2022-10-22T18:13:56.730Z,11.50
2022-10-22T18:16:24.369Z,11.40
2022-10-22T18:18:53.628Z,11.30
2022-10-22T18:21:21.835Z,11.30
2022-10-22T18:23:48.840Z,11.30
2022-10-22T18:26:20.279Z,11.20
2022-10-22T18:28:49.811Z,11.30
2022-10-22T18:31:19.315Z,11.40
2022-10-22T18:33:46.367Z,11.40
2022-10-22T18:36:19.034Z,11.30
2022-10-22T18:39:05.489Z,11.40
2022-10-22T18:41:33.712Z,11.50
2022-10-22T18:44:02.693Z,11.60
2022-10-22T18:46:30.970Z,11.60
2022-10-22T18:48:58.639Z,11.60
2022-10-22T18:51:28.331Z,11.60
2022-10-22T18:54:05.121Z,11.70
2022-10-22T18:56:40.585Z,11.60
2022-10-22T18:59:13.367Z,11.60
2022-10-22T19:01:40.403Z,11.60
2022-10-22T19:04:07.285Z,11.70
2022-10-22T19:06:36.742Z,11.70
2022-10-22T19:09:04.740Z,11.70
2022-10-22T19:11:31.909Z,11.70
2022-10-22T19:13:58.859Z,11.70
2022-10-22T19:16:26.868Z,11.70
2022-10-22T19:19:03.632Z,11.60
2022-10-22T19:21:30.790Z,11.50
2022-10-22T19:23:59.302Z,11.40
2022-10-22T19:26:28.077Z,11.40
2022-10-22T19:28:55.930Z,11.30
2022-10-22T19:31:24.613Z,11.30
2022-10-22T19:33:52.372Z,11.30
2022-10-22T19:36:19.727Z,11.30
2022-10-22T19:38:48.834Z,11.40
2022-10-22T19:41:19.061Z,11.60
2022-10-22T19:43:49.258Z,11.60
2022-10-22T19:46:16.551Z,11.60
2022-10-22T19:48:43.340Z,11.60
2022-10-22T19:51:19.703Z,11.60
2022-10-22T19:53:47.607Z,11.60
2022-10-22T19:56:18.321Z,11.60
2022-10-22T19:58:45.368Z,11.60
2022-10-22T20:01:14.270Z,11.60
2022-10-22T20:03:41.671Z,11.60
2022-10-22T20:06:10.025Z,11.60
2022-10-22T20:08:38.045Z,11.70
2022-10-22T20:11:07.048Z,11.70
2022-10-22T20:13:34.670Z,11.70
2022-10-22T20:16:01.702Z,11.70
2022-10-22T20:18:28.959Z,11.60
2022-10-22T20:20:55.960Z,11.70
2022-10-22T20:23:22.772Z,11.70
2022-10-22T20:25:49.676Z,11.70
2022-10-22T20:28:16.558Z,11.70
2022-10-22T20:30:44.774Z,11.70
2022-10-22T20:33:15.790Z,11.70
2022-10-22T20:35:43.181Z,11.60
2022-10-22T20:38:14.171Z,11.60
2022-10-22T20:40:41.043Z,11.60
2022-10-22T20:43:10.503Z,11.50
2022-10-22T20:45:39.275Z,11.50
2022-10-22T20:48:06.508Z,11.50
2022-10-22T20:50:33.709Z,11.50
2022-10-22T20:53:00.567Z,11.50
2022-10-22T20:55:27.772Z,11.50
2022-10-22T20:57:55.123Z,11.50
2022-10-22T21:00:22.065Z,11.50
2022-10-22T21:02:49.180Z,11.50
2022-10-22T21:05:16.234Z,11.40
2022-10-22T21:07:43.403Z,11.40
2022-10-22T21:10:10.577Z,11.40
2022-10-22T21:12:41.887Z,11.40
2022-10-22T21:15:12.485Z,11.40
2022-10-22T21:17:42.755Z,11.50
2022-10-22T21:22:37.566Z,11.40
2022-10-22T21:25:04.634Z,11.40
2022-10-22T21:27:31.416Z,11.40
2022-10-22T21:29:58.164Z,11.40
2022-10-22T21:32:26.444Z,11.40
2022-10-22T21:34:53.239Z,11.40
2022-10-22T21:37:22.781Z,11.30
2022-10-22T21:39:49.655Z,11.30
2022-10-22T21:42:16.566Z,11.30
2022-10-22T21:44:43.332Z,11.30
2022-10-22T21:47:10.229Z,11.30
2022-10-22T21:49:37.024Z,11.30
2022-10-22T21:52:06.818Z,11.20
2022-10-22T21:54:35.704Z,11.20
2022-10-22T21:57:02.583Z,11.20
2022-10-22T21:59:32.232Z,11.10
2022-10-22T22:02:03.459Z,11.10
2022-10-22T22:04:32.844Z,11.10
2022-10-22T22:06:59.798Z,11.10
2022-10-22T22:09:26.630Z,11.00
2022-10-22T22:11:53.490Z,10.90
2022-10-22T22:14:20.329Z,10.90
2022-10-22T22:16:47.188Z,10.90
2022-10-22T22:19:14.147Z,10.90
2022-10-22T22:21:41.935Z,10.90
2022-10-22T22:24:11.546Z,10.90
2022-10-22T22:26:40.082Z,10.80
2022-10-22T22:29:06.961Z,10.80
2022-10-22T22:31:35.542Z,10.70
2022-10-22T22:34:16.312Z,10.70
2022-10-22T22:36:46.015Z,10.60
2022-10-22T22:39:15.773Z,10.60
2022-10-22T22:41:43.355Z,10.60
2022-10-22T22:44:10.500Z,10.60
2022-10-22T22:46:37.343Z,10.40
2022-10-22T22:49:04.626Z,10.20
2022-10-22T22:51:31.591Z,10.10
2022-10-22T22:54:00.122Z,10.20
2022-10-22T22:56:29.637Z,10.20
2022-10-22T22:58:57.181Z,10.30
2022-10-22T23:01:31.111Z,10.40
2022-10-22T23:04:12.267Z,10.50
2022-10-22T23:06:39.744Z,10.50
2022-10-22T23:09:08.739Z,10.50
2022-10-22T23:11:36.175Z,10.40
2022-10-22T23:14:06.686Z,10.40
2022-10-22T23:16:37.021Z,10.30
2022-10-22T23:19:05.379Z,10.40
2022-10-22T23:21:37.419Z,10.40
2022-10-22T23:24:08.398Z,10.40
2022-10-22T23:26:38.032Z,10.40
2022-10-22T23:29:08.371Z,10.30
2022-10-22T23:31:35.389Z,10.20
2022-10-22T23:34:02.212Z,10.20
2022-10-22T23:36:29.128Z,10.10
2022-10-22T23:38:55.946Z,10.10
2022-10-22T23:41:24.018Z,10.00
2022-10-22T23:43:51.342Z,10.00
2022-10-22T23:46:18.262Z,10.00
2022-10-22T23:48:45.869Z,10.00
2022-10-22T23:51:15.049Z,10.00
2022-10-22T23:53:43.984Z,10.10
2022-10-22T23:56:18.291Z,10.00
2022-10-22T23:58:45.424Z,9.90
